sensor_id;sensor_type;location;lat;lon;timestamp;temperature;humidity
5009;DHT22;2523;51.058;6.922;2022-12-10T00:01:08;0.20;99.90
5009;DHT22;2523;51.058;6.922;2022-12-10T00:03:33;0.20;99.90
5009;DHT22;2523;51.058;6.922;2022-12-10T00:06:03;0.20;99.90
5009;DHT22;2523;51.058;6.922;2022-12-10T00:08:30;0.10;99.90
5009;DHT22;2523;51.058;6.922;2022-12-10T00:10:56;0.10;99.90
5009;DHT22;2523;51.058;6.922;2022-12-10T00:13:21;0.00;99.90
5009;DHT22;2523;51.058;6.922;2022-12-10T00:15:47;0.00;99.90
5009;DHT22;2523;51.058;6.922;2022-12-10T00:18:12;0.00;99.90
5009;DHT22;2523;51.058;6.922;2022-12-10T00:20:38;0.00;99.90
5009;DHT22;2523;51.058;6.922;2022-12-10T00:23:04;-0.10;99.90
5009;DHT22;2523;51.058;6.922;2022-12-10T00:25:31;-0.10;99.90
5009;DHT22;2523;51.058;6.922;2022-12-10T00:27:56;-0.10;99.90
5009;DHT22;2523;51.058;6.922;2022-12-10T00:30:22;-0.10;99.90
5009;DHT22;2523;51.058;6.922;2022-12-10T00:32:47;-0.10;99.90
5009;DHT22;2523;51.058;6.922;2022-12-10T00:35:13;-0.10;99.90
5009;DHT22;2523;51.058;6.922;2022-12-10T00:37:38;-0.10;99.90
5009;DHT22;2523;51.058;6.922;2022-12-10T00:40:04;-0.20;99.90
5009;DHT22;2523;51.058;6.922;2022-12-10T00:42:30;-0.20;99.90
5009;DHT22;2523;51.058;6.922;2022-12-10T00:44:55;-0.30;99.90
5009;DHT22;2523;51.058;6.922;2022-12-10T00:47:21;-0.30;99.90
5009;DHT22;2523;51.058;6.922;2022-12-10T00:49:46;-0.30;99.90
5009;DHT22;2523;51.058;6.922;2022-12-10T00:52:12;-0.40;99.90
5009;DHT22;2523;51.058;6.922;2022-12-10T00:54:37;-0.40;99.90
5009;DHT22;2523;51.058;6.922;2022-12-10T00:57:03;-0.40;99.90
5009;DHT22;2523;51.058;6.922;2022-12-10T00:59:28;-0.30;99.90
5009;DHT22;2523;51.058;6.922;2022-12-10T01:01:54;-0.20;99.90
5009;DHT22;2523;51.058;6.922;2022-12-10T01:04:19;-0.20;99.90
5009;DHT22;2523;51.058;6.922;2022-12-10T01:06:46;-0.20;99.90
5009;DHT22;2523;51.058;6.922;2022-12-10T01:09:14;-0.30;99.90
5009;DHT22;2523;51.058;6.922;2022-12-10T01:11:42;-0.30;99.90
5009;DHT22;2523;51.058;6.922;2022-12-10T01:14:10;-0.40;99.90
5009;DHT22;2523;51.058;6.922;2022-12-10T01:16:36;-0.50;99.90
5009;DHT22;2523;51.058;6.922;2022-12-10T01:19:03;-0.50;99.90
5009;DHT22;2523;51.058;6.922;2022-12-10T01:21:29;-0.50;99.90
5009;DHT22;2523;51.058;6.922;2022-12-10T01:23:55;-0.60;99.90
5009;DHT22;2523;51.058;6.922;2022-12-10T01:26:24;-0.50;99.90
5009;DHT22;2523;51.058;6.922;2022-12-10T01:28:51;-0.60;99.90
5009;DHT22;2523;51.058;6.922;2022-12-10T01:31:18;-0.60;99.90
5009;DHT22;2523;51.058;6.922;2022-12-10T01:33:44;-0.50;99.90
5009;DHT22;2523;51.058;6.922;2022-12-10T01:36:16;-0.60;99.90
5009;DHT22;2523;51.058;6.922;2022-12-10T01:38:42;-0.60;99.90
5009;DHT22;2523;51.058;6.922;2022-12-10T01:41:13;-0.60;99.90
5009;DHT22;2523;51.058;6.922;2022-12-10T01:43:57;-0.60;99.90
5009;DHT22;2523;51.058;6.922;2022-12-10T01:46:29;-0.70;99.90
5009;DHT22;2523;51.058;6.922;2022-12-10T01:48:56;-0.60;99.90
5009;DHT22;2523;51.058;6.922;2022-12-10T01:51:24;-0.70;99.90
5009;DHT22;2523;51.058;6.922;2022-12-10T01:53:50;-0.70;99.90
5009;DHT22;2523;51.058;6.922;2022-12-10T01:56:17;-0.80;99.90
5009;DHT22;2523;51.058;6.922;2022-12-10T01:58:43;-0.70;99.90
5009;DHT22;2523;51.058;6.922;2022-12-10T02:01:46;-0.70;99.90
5009;DHT22;2523;51.058;6.922;2022-12-10T02:04:39;-0.70;99.90
5009;DHT22;2523;51.058;6.922;2022-12-10T02:07:22;-0.70;99.90
5009;DHT22;2523;51.058;6.922;2022-12-10T02:10:23;-0.70;99.90
5009;DHT22;2523;51.058;6.922;2022-12-10T02:13:23;-0.70;99.90
5009;DHT22;2523;51.058;6.922;2022-12-10T02:16:18;-0.80;99.90
5009;DHT22;2523;51.058;6.922;2022-12-10T02:18:53;-0.80;99.90
5009;DHT22;2523;51.058;6.922;2022-12-10T02:21:28;-0.80;99.90
5009;DHT22;2523;51.058;6.922;2022-12-10T02:23:59;-0.90;99.90
5009;DHT22;2523;51.058;6.922;2022-12-10T02:26:33;-0.90;99.90
5009;DHT22;2523;51.058;6.922;2022-12-10T02:29:27;-0.90;99.90
5009;DHT22;2523;51.058;6.922;2022-12-10T02:32:09;-0.80;99.90
5009;DHT22;2523;51.058;6.922;2022-12-10T02:34:40;-0.90;99.90
5009;DHT22;2523;51.058;6.922;2022-12-10T02:37:15;-1.00;99.90
5009;DHT22;2523;51.058;6.922;2022-12-10T02:39:46;-1.00;99.90
5009;DHT22;2523;51.058;6.922;2022-12-10T02:42:15;-1.00;99.90
5009;DHT22;2523;51.058;6.922;2022-12-10T02:44:42;-1.00;99.90
5009;DHT22;2523;51.058;6.922;2022-12-10T02:47:09;-0.90;99.90
5009;DHT22;2523;51.058;6.922;2022-12-10T02:49:37;-0.90;99.90
5009;DHT22;2523;51.058;6.922;2022-12-10T02:52:13;-0.90;99.90
5009;DHT22;2523;51.058;6.922;2022-12-10T02:54:45;-0.80;99.90
5009;DHT22;2523;51.058;6.922;2022-12-10T02:57:56;-0.80;99.90
5009;DHT22;2523;51.058;6.922;2022-12-10T03:05:21;-0.80;99.90
5009;DHT22;2523;51.058;6.922;2022-12-10T03:08:15;-0.80;99.90
5009;DHT22;2523;51.058;6.922;2022-12-10T03:11:12;-0.80;99.90
5009;DHT22;2523;51.058;6.922;2022-12-10T03:16:20;-0.80;99.90
5009;DHT22;2523;51.058;6.922;2022-12-10T03:18:51;-0.80;99.90
5009;DHT22;2523;51.058;6.922;2022-12-10T03:21:18;-0.70;99.90
5009;DHT22;2523;51.058;6.922;2022-12-10T03:23:46;-0.60;99.90
5009;DHT22;2523;51.058;6.922;2022-12-10T03:26:12;-0.60;99.90
5009;DHT22;2523;51.058;6.922;2022-12-10T03:28:45;-0.50;99.90
5009;DHT22;2523;51.058;6.922;2022-12-10T03:31:12;-0.50;99.90
5009;DHT22;2523;51.058;6.922;2022-12-10T03:33:38;-0.50;99.90
5009;DHT22;2523;51.058;6.922;2022-12-10T03:36:05;-0.50;99.90
5009;DHT22;2523;51.058;6.922;2022-12-10T03:38:32;-0.40;99.90
5009;DHT22;2523;51.058;6.922;2022-12-10T03:40:57;-0.40;99.90
5009;DHT22;2523;51.058;6.922;2022-12-10T03:43:23;-0.40;99.90
5009;DHT22;2523;51.058;6.922;2022-12-10T03:45:48;-0.40;99.90
5009;DHT22;2523;51.058;6.922;2022-12-10T03:48:14;-0.30;99.90
5009;DHT22;2523;51.058;6.922;2022-12-10T03:50:39;-0.30;99.90
5009;DHT22;2523;51.058;6.922;2022-12-10T03:53:05;-0.30;99.90
5009;DHT22;2523;51.058;6.922;2022-12-10T03:55:30;-0.30;99.90
5009;DHT22;2523;51.058;6.922;2022-12-10T03:57:58;-0.30;99.90
5009;DHT22;2523;51.058;6.922;2022-12-10T04:00:23;-0.30;99.90
5009;DHT22;2523;51.058;6.922;2022-12-10T04:02:49;-0.30;99.90
5009;DHT22;2523;51.058;6.922;2022-12-10T04:05:14;-0.40;99.90
5009;DHT22;2523;51.058;6.922;2022-12-10T04:07:41;-0.30;99.90
5009;DHT22;2523;51.058;6.922;2022-12-10T04:10:06;-0.30;99.90
5009;DHT22;2523;51.058;6.922;2022-12-10T04:12:32;-0.30;99.90
5009;DHT22;2523;51.058;6.922;2022-12-10T04:14:58;-0.30;99.90
5009;DHT22;2523;51.058;6.922;2022-12-10T04:17:42;-0.30;99.90
5009;DHT22;2523;51.058;6.922;2022-12-10T04:20:08;-0.30;99.90
5009;DHT22;2523;51.058;6.922;2022-12-10T04:22:56;-0.40;99.90
5009;DHT22;2523;51.058;6.922;2022-12-10T04:25:41;-0.30;99.90
5009;DHT22;2523;51.058;6.922;2022-12-10T04:28:25;-0.30;99.90
5009;DHT22;2523;51.058;6.922;2022-12-10T04:30:51;-0.20;99.90
5009;DHT22;2523;51.058;6.922;2022-12-10T04:33:16;-0.20;99.90
5009;DHT22;2523;51.058;6.922;2022-12-10T04:35:42;-0.30;99.90
5009;DHT22;2523;51.058;6.922;2022-12-10T04:38:07;-0.30;99.90
5009;DHT22;2523;51.058;6.922;2022-12-10T04:40:33;-0.20;99.90
5009;DHT22;2523;51.058;6.922;2022-12-10T04:42:58;-0.30;99.90
5009;DHT22;2523;51.058;6.922;2022-12-10T04:45:24;-0.30;99.90
5009;DHT22;2523;51.058;6.922;2022-12-10T04:47:49;-0.20;99.90
5009;DHT22;2523;51.058;6.922;2022-12-10T04:50:15;-0.20;99.90
5009;DHT22;2523;51.058;6.922;2022-12-10T04:52:40;-0.20;99.90
5009;DHT22;2523;51.058;6.922;2022-12-10T04:55:06;-0.20;99.90
5009;DHT22;2523;51.058;6.922;2022-12-10T04:57:32;-0.20;99.90
5009;DHT22;2523;51.058;6.922;2022-12-10T04:59:57;-0.20;99.90
5009;DHT22;2523;51.058;6.922;2022-12-10T05:02:23;-0.20;99.90
5009;DHT22;2523;51.058;6.922;2022-12-10T05:04:49;-0.20;99.90
5009;DHT22;2523;51.058;6.922;2022-12-10T05:07:14;-0.20;99.90
5009;DHT22;2523;51.058;6.922;2022-12-10T05:09:40;-0.20;99.90
5009;DHT22;2523;51.058;6.922;2022-12-10T05:12:05;-0.10;99.90
5009;DHT22;2523;51.058;6.922;2022-12-10T05:14:31;-0.20;99.90
5009;DHT22;2523;51.058;6.922;2022-12-10T05:16:57;-0.10;99.90
5009;DHT22;2523;51.058;6.922;2022-12-10T05:19:22;0.00;99.90
5009;DHT22;2523;51.058;6.922;2022-12-10T05:21:51;0.00;99.90
5009;DHT22;2523;51.058;6.922;2022-12-10T05:24:36;-0.10;99.90
5009;DHT22;2523;51.058;6.922;2022-12-10T05:27:01;-0.20;99.90
5009;DHT22;2523;51.058;6.922;2022-12-10T05:29:27;-0.20;99.90
5009;DHT22;2523;51.058;6.922;2022-12-10T05:31:52;-0.20;99.90
5009;DHT22;2523;51.058;6.922;2022-12-10T05:34:18;-0.10;99.90
5009;DHT22;2523;51.058;6.922;2022-12-10T05:36:44;-0.20;99.90
5009;DHT22;2523;51.058;6.922;2022-12-10T05:39:10;-0.10;99.90
5009;DHT22;2523;51.058;6.922;2022-12-10T05:41:37;-0.10;99.90
5009;DHT22;2523;51.058;6.922;2022-12-10T05:44:03;0.00;99.90
5009;DHT22;2523;51.058;6.922;2022-12-10T05:46:31;0.00;99.90
5009;DHT22;2523;51.058;6.922;2022-12-10T05:48:57;0.00;99.90
5009;DHT22;2523;51.058;6.922;2022-12-10T05:51:26;0.00;99.90
5009;DHT22;2523;51.058;6.922;2022-12-10T05:53:53;-0.10;99.90
5009;DHT22;2523;51.058;6.922;2022-12-10T05:56:21;0.00;99.90
5009;DHT22;2523;51.058;6.922;2022-12-10T05:58:48;0.10;99.90
5009;DHT22;2523;51.058;6.922;2022-12-10T06:01:19;0.10;99.90
5009;DHT22;2523;51.058;6.922;2022-12-10T06:03:45;0.10;99.90
5009;DHT22;2523;51.058;6.922;2022-12-10T06:06:12;0.10;99.90
5009;DHT22;2523;51.058;6.922;2022-12-10T06:08:38;0.10;99.90
5009;DHT22;2523;51.058;6.922;2022-12-10T06:11:08;0.00;99.90
5009;DHT22;2523;51.058;6.922;2022-12-10T06:13:35;0.00;99.90
5009;DHT22;2523;51.058;6.922;2022-12-10T06:16:05;0.10;99.90
5009;DHT22;2523;51.058;6.922;2022-12-10T06:18:30;0.20;99.90
5009;DHT22;2523;51.058;6.922;2022-12-10T06:20:56;0.20;99.90
5009;DHT22;2523;51.058;6.922;2022-12-10T06:23:21;0.00;99.90
5009;DHT22;2523;51.058;6.922;2022-12-10T06:25:47;0.10;99.90
5009;DHT22;2523;51.058;6.922;2022-12-10T06:28:12;0.10;99.90
5009;DHT22;2523;51.058;6.922;2022-12-10T06:30:38;0.10;99.90
5009;DHT22;2523;51.058;6.922;2022-12-10T06:33:03;0.20;99.90
5009;DHT22;2523;51.058;6.922;2022-12-10T06:35:29;0.30;99.90
5009;DHT22;2523;51.058;6.922;2022-12-10T06:37:54;0.30;99.90
5009;DHT22;2523;51.058;6.922;2022-12-10T06:40:20;0.30;99.90
5009;DHT22;2523;51.058;6.922;2022-12-10T06:42:45;0.30;99.90
5009;DHT22;2523;51.058;6.922;2022-12-10T06:45:11;0.20;99.90
5009;DHT22;2523;51.058;6.922;2022-12-10T06:47:36;0.20;99.90
5009;DHT22;2523;51.058;6.922;2022-12-10T06:50:02;0.20;99.90
5009;DHT22;2523;51.058;6.922;2022-12-10T06:52:28;0.20;99.90
5009;DHT22;2523;51.058;6.922;2022-12-10T06:54:53;0.20;99.90
5009;DHT22;2523;51.058;6.922;2022-12-10T06:57:20;0.20;99.90
5009;DHT22;2523;51.058;6.922;2022-12-10T06:59:46;0.10;99.90
5009;DHT22;2523;51.058;6.922;2022-12-10T07:02:11;0.10;99.90
5009;DHT22;2523;51.058;6.922;2022-12-10T07:04:37;0.10;99.90
5009;DHT22;2523;51.058;6.922;2022-12-10T07:07:02;0.10;99.90
5009;DHT22;2523;51.058;6.922;2022-12-10T07:09:28;0.20;99.90
5009;DHT22;2523;51.058;6.922;2022-12-10T07:11:53;0.20;99.90
5009;DHT22;2523;51.058;6.922;2022-12-10T07:14:19;0.10;99.90
5009;DHT22;2523;51.058;6.922;2022-12-10T07:16:45;0.20;99.90
5009;DHT22;2523;51.058;6.922;2022-12-10T07:19:12;0.20;99.90
5009;DHT22;2523;51.058;6.922;2022-12-10T07:21:40;0.30;99.90
5009;DHT22;2523;51.058;6.922;2022-12-10T07:24:09;0.20;99.90
5009;DHT22;2523;51.058;6.922;2022-12-10T07:26:36;0.30;99.90
5009;DHT22;2523;51.058;6.922;2022-12-10T07:29:04;0.30;99.90
5009;DHT22;2523;51.058;6.922;2022-12-10T07:31:31;0.30;99.90
5009;DHT22;2523;51.058;6.922;2022-12-10T07:33:58;0.30;99.90
5009;DHT22;2523;51.058;6.922;2022-12-10T07:36:24;0.40;99.90
5009;DHT22;2523;51.058;6.922;2022-12-10T07:38:51;0.30;99.90
5009;DHT22;2523;51.058;6.922;2022-12-10T07:41:17;0.40;99.90
5009;DHT22;2523;51.058;6.922;2022-12-10T07:43:44;0.40;99.90
5009;DHT22;2523;51.058;6.922;2022-12-10T07:46:16;0.40;99.90
5009;DHT22;2523;51.058;6.922;2022-12-10T07:48:44;0.50;99.90
5009;DHT22;2523;51.058;6.922;2022-12-10T07:51:11;0.60;99.90
5009;DHT22;2523;51.058;6.922;2022-12-10T07:53:37;0.50;99.90
5009;DHT22;2523;51.058;6.922;2022-12-10T07:56:04;0.50;99.90
5009;DHT22;2523;51.058;6.922;2022-12-10T07:58:30;0.50;99.90
5009;DHT22;2523;51.058;6.922;2022-12-10T08:00:55;0.50;99.90
5009;DHT22;2523;51.058;6.922;2022-12-10T08:03:21;0.60;99.90
5009;DHT22;2523;51.058;6.922;2022-12-10T08:05:46;0.50;99.90
5009;DHT22;2523;51.058;6.922;2022-12-10T08:08:12;0.50;99.90
5009;DHT22;2523;51.058;6.922;2022-12-10T08:10:38;0.50;99.90
5009;DHT22;2523;51.058;6.922;2022-12-10T08:13:04;0.50;99.90
5009;DHT22;2523;51.058;6.922;2022-12-10T08:15:31;0.50;99.90
5009;DHT22;2523;51.058;6.922;2022-12-10T08:17:56;0.50;99.90
5009;DHT22;2523;51.058;6.922;2022-12-10T08:20:23;0.50;99.90
5009;DHT22;2523;51.058;6.922;2022-12-10T08:22:50;0.50;99.90
5009;DHT22;2523;51.058;6.922;2022-12-10T08:25:15;0.40;99.90
5009;DHT22;2523;51.058;6.922;2022-12-10T08:27:42;0.30;99.90
5009;DHT22;2523;51.058;6.922;2022-12-10T08:30:08;0.50;99.90
5009;DHT22;2523;51.058;6.922;2022-12-10T08:32:34;0.50;99.90
5009;DHT22;2523;51.058;6.922;2022-12-10T08:35:00;0.60;99.90
5009;DHT22;2523;51.058;6.922;2022-12-10T08:37:25;0.50;99.90
5009;DHT22;2523;51.058;6.922;2022-12-10T08:39:51;0.50;99.90
5009;DHT22;2523;51.058;6.922;2022-12-10T08:42:16;0.50;99.90
5009;DHT22;2523;51.058;6.922;2022-12-10T08:44:42;0.50;99.90
5009;DHT22;2523;51.058;6.922;2022-12-10T08:47:07;0.50;99.90
5009;DHT22;2523;51.058;6.922;2022-12-10T08:49:33;0.60;99.90
5009;DHT22;2523;51.058;6.922;2022-12-10T08:51:59;0.50;99.90
5009;DHT22;2523;51.058;6.922;2022-12-10T08:54:24;0.50;99.90
5009;DHT22;2523;51.058;6.922;2022-12-10T08:56:50;0.50;99.90
5009;DHT22;2523;51.058;6.922;2022-12-10T08:59:16;0.50;99.90
5009;DHT22;2523;51.058;6.922;2022-12-10T09:01:41;0.50;99.90
5009;DHT22;2523;51.058;6.922;2022-12-10T09:04:07;0.60;99.90
5009;DHT22;2523;51.058;6.922;2022-12-10T09:06:33;0.60;99.90
5009;DHT22;2523;51.058;6.922;2022-12-10T09:09:00;0.60;99.90
5009;DHT22;2523;51.058;6.922;2022-12-10T09:11:28;0.70;99.90
5009;DHT22;2523;51.058;6.922;2022-12-10T09:13:54;0.70;99.90
5009;DHT22;2523;51.058;6.922;2022-12-10T09:16:20;0.70;99.90
5009;DHT22;2523;51.058;6.922;2022-12-10T09:18:45;0.80;99.90
5009;DHT22;2523;51.058;6.922;2022-12-10T09:21:14;0.70;99.90
5009;DHT22;2523;51.058;6.922;2022-12-10T09:23:41;0.70;99.90
5009;DHT22;2523;51.058;6.922;2022-12-10T09:26:09;0.60;99.90
5009;DHT22;2523;51.058;6.922;2022-12-10T09:28:35;0.60;99.90
5009;DHT22;2523;51.058;6.922;2022-12-10T09:31:01;0.60;99.90
5009;DHT22;2523;51.058;6.922;2022-12-10T09:33:28;0.50;99.90
5009;DHT22;2523;51.058;6.922;2022-12-10T09:35:53;0.40;99.90
5009;DHT22;2523;51.058;6.922;2022-12-10T09:38:19;0.60;99.90
5009;DHT22;2523;51.058;6.922;2022-12-10T09:40:56;0.70;99.90
5009;DHT22;2523;51.058;6.922;2022-12-10T09:49:06;0.90;99.90
5009;DHT22;2523;51.058;6.922;2022-12-10T09:51:37;0.90;99.90
5009;DHT22;2523;51.058;6.922;2022-12-10T09:54:15;0.90;99.90
5009;DHT22;2523;51.058;6.922;2022-12-10T09:56:43;0.70;99.90
5009;DHT22;2523;51.058;6.922;2022-12-10T09:59:30;0.70;99.90
5009;DHT22;2523;51.058;6.922;2022-12-10T10:02:20;0.60;99.90
5009;DHT22;2523;51.058;6.922;2022-12-10T10:04:47;0.70;99.90
5009;DHT22;2523;51.058;6.922;2022-12-10T10:07:36;0.70;99.90
5009;DHT22;2523;51.058;6.922;2022-12-10T10:10:07;0.70;99.90
5009;DHT22;2523;51.058;6.922;2022-12-10T10:12:34;0.60;99.90
5009;DHT22;2523;51.058;6.922;2022-12-10T10:15:13;0.70;99.90
5009;DHT22;2523;51.058;6.922;2022-12-10T10:17:39;0.60;99.90
5009;DHT22;2523;51.058;6.922;2022-12-10T10:20:11;0.50;99.90
5009;DHT22;2523;51.058;6.922;2022-12-10T10:22:38;0.50;99.90
5009;DHT22;2523;51.058;6.922;2022-12-10T10:25:05;0.50;99.90
5009;DHT22;2523;51.058;6.922;2022-12-10T10:27:31;0.60;99.90
5009;DHT22;2523;51.058;6.922;2022-12-10T10:30:00;0.60;99.90
5009;DHT22;2523;51.058;6.922;2022-12-10T10:32:52;0.60;99.90
5009;DHT22;2523;51.058;6.922;2022-12-10T10:35:32;0.60;99.90
5009;DHT22;2523;51.058;6.922;2022-12-10T10:38:06;0.60;99.90
5009;DHT22;2523;51.058;6.922;2022-12-10T10:40:39;0.70;99.90
5009;DHT22;2523;51.058;6.922;2022-12-10T10:43:05;0.90;99.90
5009;DHT22;2523;51.058;6.922;2022-12-10T10:45:56;0.90;99.90
5009;DHT22;2523;51.058;6.922;2022-12-10T10:48:24;1.00;99.90
5009;DHT22;2523;51.058;6.922;2022-12-10T10:50:54;1.00;99.90
5009;DHT22;2523;51.058;6.922;2022-12-10T10:56:11;0.90;99.90
5009;DHT22;2523;51.058;6.922;2022-12-10T11:01:19;0.90;99.90
5009;DHT22;2523;51.058;6.922;2022-12-10T11:03:50;0.90;99.90
5009;DHT22;2523;51.058;6.922;2022-12-10T11:06:18;1.00;99.90
5009;DHT22;2523;51.058;6.922;2022-12-10T11:08:46;1.00;99.90
5009;DHT22;2523;51.058;6.922;2022-12-10T11:11:36;1.20;99.90
5009;DHT22;2523;51.058;6.922;2022-12-10T11:14:29;1.10;99.90
5009;DHT22;2523;51.058;6.922;2022-12-10T11:17:12;1.20;99.90
5009;DHT22;2523;51.058;6.922;2022-12-10T11:19:44;1.20;99.90
5009;DHT22;2523;51.058;6.922;2022-12-10T11:22:21;1.10;99.90
5009;DHT22;2523;51.058;6.922;2022-12-10T11:24:48;1.20;99.90
5009;DHT22;2523;51.058;6.922;2022-12-10T11:27:48;1.20;99.90
5009;DHT22;2523;51.058;6.922;2022-12-10T11:30:22;1.10;99.90
5009;DHT22;2523;51.058;6.922;2022-12-10T11:42:33;1.20;99.90
5009;DHT22;2523;51.058;6.922;2022-12-10T11:50:18;1.20;99.90
5009;DHT22;2523;51.058;6.922;2022-12-10T11:53:02;1.10;99.90
5009;DHT22;2523;51.058;6.922;2022-12-10T11:55:52;0.90;99.90
5009;DHT22;2523;51.058;6.922;2022-12-10T12:07:30;1.20;99.90
5009;DHT22;2523;51.058;6.922;2022-12-10T12:13:15;1.20;99.90
5009;DHT22;2523;51.058;6.922;2022-12-10T12:15:57;1.20;99.90
5009;DHT22;2523;51.058;6.922;2022-12-10T12:18:42;1.10;99.90
5009;DHT22;2523;51.058;6.922;2022-12-10T12:21:14;1.10;99.90
5009;DHT22;2523;51.058;6.922;2022-12-10T12:23:58;1.10;99.90
5009;DHT22;2523;51.058;6.922;2022-12-10T12:29:27;1.20;99.90
5009;DHT22;2523;51.058;6.922;2022-12-10T12:32:10;1.20;99.90
5009;DHT22;2523;51.058;6.922;2022-12-10T12:34:44;1.30;99.90
5009;DHT22;2523;51.058;6.922;2022-12-10T12:37:14;1.30;99.90
5009;DHT22;2523;51.058;6.922;2022-12-10T12:39:50;1.20;99.90
5009;DHT22;2523;51.058;6.922;2022-12-10T12:42:30;1.20;99.90
5009;DHT22;2523;51.058;6.922;2022-12-10T12:45:07;1.10;99.90
5009;DHT22;2523;51.058;6.922;2022-12-10T12:47:43;1.00;99.90
5009;DHT22;2523;51.058;6.922;2022-12-10T12:50:23;1.00;99.90
5009;DHT22;2523;51.058;6.922;2022-12-10T12:52:53;1.00;99.90
5009;DHT22;2523;51.058;6.922;2022-12-10T13:01:20;1.20;99.90
5009;DHT22;2523;51.058;6.922;2022-12-10T13:03:48;1.20;99.90
5009;DHT22;2523;51.058;6.922;2022-12-10T13:06:21;1.30;99.90
5009;DHT22;2523;51.058;6.922;2022-12-10T13:09:16;1.20;99.90
5009;DHT22;2523;51.058;6.922;2022-12-10T13:11:44;1.40;99.90
5009;DHT22;2523;51.058;6.922;2022-12-10T13:17:08;1.60;99.90
5009;DHT22;2523;51.058;6.922;2022-12-10T13:19:35;1.30;99.90
5009;DHT22;2523;51.058;6.922;2022-12-10T13:27:05;1.30;99.90
5009;DHT22;2523;51.058;6.922;2022-12-10T13:40:38;1.30;99.90
5009;DHT22;2523;51.058;6.922;2022-12-10T13:48:51;1.30;99.90
5009;DHT22;2523;51.058;6.922;2022-12-10T13:51:59;1.40;99.90
5009;DHT22;2523;51.058;6.922;2022-12-10T13:54:58;1.30;99.90
5009;DHT22;2523;51.058;6.922;2022-12-10T14:00:41;1.40;99.90
5009;DHT22;2523;51.058;6.922;2022-12-10T14:08:27;1.20;99.90
5009;DHT22;2523;51.058;6.922;2022-12-10T14:10:56;1.20;99.90
5009;DHT22;2523;51.058;6.922;2022-12-10T14:13:37;1.30;99.90
5009;DHT22;2523;51.058;6.922;2022-12-10T14:16:05;1.30;99.90
5009;DHT22;2523;51.058;6.922;2022-12-10T14:18:35;1.40;99.90
5009;DHT22;2523;51.058;6.922;2022-12-10T14:21:05;1.40;99.90
5009;DHT22;2523;51.058;6.922;2022-12-10T14:23:33;1.50;99.90
5009;DHT22;2523;51.058;6.922;2022-12-10T14:26:09;1.40;99.90
5009;DHT22;2523;51.058;6.922;2022-12-10T14:28:44;1.50;99.90
5009;DHT22;2523;51.058;6.922;2022-12-10T14:31:36;1.50;99.90
5009;DHT22;2523;51.058;6.922;2022-12-10T14:34:06;1.40;99.90
5009;DHT22;2523;51.058;6.922;2022-12-10T14:36:37;1.40;99.90
5009;DHT22;2523;51.058;6.922;2022-12-10T14:39:17;1.40;99.90
5009;DHT22;2523;51.058;6.922;2022-12-10T14:41:44;1.40;99.90
5009;DHT22;2523;51.058;6.922;2022-12-10T14:44:13;1.40;99.90
5009;DHT22;2523;51.058;6.922;2022-12-10T14:46:39;1.40;99.90
5009;DHT22;2523;51.058;6.922;2022-12-10T14:49:07;1.30;99.90
5009;DHT22;2523;51.058;6.922;2022-12-10T14:51:36;1.30;99.90
5009;DHT22;2523;51.058;6.922;2022-12-10T14:54:02;1.30;99.90
5009;DHT22;2523;51.058;6.922;2022-12-10T14:56:29;1.30;99.90
5009;DHT22;2523;51.058;6.922;2022-12-10T14:59:15;1.30;99.90
5009;DHT22;2523;51.058;6.922;2022-12-10T15:01:46;1.30;99.90
5009;DHT22;2523;51.058;6.922;2022-12-10T15:04:16;1.40;99.90
5009;DHT22;2523;51.058;6.922;2022-12-10T15:06:42;1.30;99.90
5009;DHT22;2523;51.058;6.922;2022-12-10T15:09:25;1.30;99.90
5009;DHT22;2523;51.058;6.922;2022-12-10T15:11:56;1.40;99.90
5009;DHT22;2523;51.058;6.922;2022-12-10T15:14:23;1.40;99.90
5009;DHT22;2523;51.058;6.922;2022-12-10T15:16:50;1.30;99.90
5009;DHT22;2523;51.058;6.922;2022-12-10T15:19:30;1.40;99.90
5009;DHT22;2523;51.058;6.922;2022-12-10T15:22:16;1.40;99.90
5009;DHT22;2523;51.058;6.922;2022-12-10T15:24:43;1.40;99.90
5009;DHT22;2523;51.058;6.922;2022-12-10T15:27:23;1.30;99.90
5009;DHT22;2523;51.058;6.922;2022-12-10T15:29:49;1.40;99.90
5009;DHT22;2523;51.058;6.922;2022-12-10T15:34:54;1.30;99.90
5009;DHT22;2523;51.058;6.922;2022-12-10T15:37:24;1.30;99.90
5009;DHT22;2523;51.058;6.922;2022-12-10T15:39:56;1.40;99.90
5009;DHT22;2523;51.058;6.922;2022-12-10T15:42:40;1.40;99.90
5009;DHT22;2523;51.058;6.922;2022-12-10T15:45:22;1.40;99.90
5009;DHT22;2523;51.058;6.922;2022-12-10T15:47:49;1.40;99.90
5009;DHT22;2523;51.058;6.922;2022-12-10T15:50:15;1.40;99.90
5009;DHT22;2523;51.058;6.922;2022-12-10T15:52:41;1.40;99.90
5009;DHT22;2523;51.058;6.922;2022-12-10T15:55:07;1.40;99.90
5009;DHT22;2523;51.058;6.922;2022-12-10T15:57:35;1.30;99.90
5009;DHT22;2523;51.058;6.922;2022-12-10T16:00:06;1.40;99.90
5009;DHT22;2523;51.058;6.922;2022-12-10T16:02:51;1.40;99.90
5009;DHT22;2523;51.058;6.922;2022-12-10T16:05:23;1.50;99.90
5009;DHT22;2523;51.058;6.922;2022-12-10T16:07:51;1.50;99.90
5009;DHT22;2523;51.058;6.922;2022-12-10T16:10:20;1.50;99.90
5009;DHT22;2523;51.058;6.922;2022-12-10T16:12:48;1.50;99.90
5009;DHT22;2523;51.058;6.922;2022-12-10T16:15:20;1.50;99.90
5009;DHT22;2523;51.058;6.922;2022-12-10T16:17:46;1.50;99.90
5009;DHT22;2523;51.058;6.922;2022-12-10T16:22:40;1.40;99.90
5009;DHT22;2523;51.058;6.922;2022-12-10T16:25:06;1.40;99.90
5009;DHT22;2523;51.058;6.922;2022-12-10T16:27:32;1.50;99.90
5009;DHT22;2523;51.058;6.922;2022-12-10T16:29:58;1.50;99.90
5009;DHT22;2523;51.058;6.922;2022-12-10T16:32:24;1.50;99.90
5009;DHT22;2523;51.058;6.922;2022-12-10T16:34:49;1.50;99.90
5009;DHT22;2523;51.058;6.922;2022-12-10T16:37:17;1.50;99.90
5009;DHT22;2523;51.058;6.922;2022-12-10T16:39:42;1.40;99.90
5009;DHT22;2523;51.058;6.922;2022-12-10T16:42:10;1.40;99.90
5009;DHT22;2523;51.058;6.922;2022-12-10T16:44:36;1.50;99.90
5009;DHT22;2523;51.058;6.922;2022-12-10T16:47:10;1.50;99.90
5009;DHT22;2523;51.058;6.922;2022-12-10T16:49:36;1.50;99.90
5009;DHT22;2523;51.058;6.922;2022-12-10T16:52:01;1.50;99.90
5009;DHT22;2523;51.058;6.922;2022-12-10T16:54:27;1.40;99.90
5009;DHT22;2523;51.058;6.922;2022-12-10T16:56:53;1.40;99.90
5009;DHT22;2523;51.058;6.922;2022-12-10T16:59:18;1.50;99.90
5009;DHT22;2523;51.058;6.922;2022-12-10T17:01:44;1.50;99.90
5009;DHT22;2523;51.058;6.922;2022-12-10T17:04:09;1.50;99.90
5009;DHT22;2523;51.058;6.922;2022-12-10T17:06:35;1.50;99.90
5009;DHT22;2523;51.058;6.922;2022-12-10T17:09:00;1.50;99.90
5009;DHT22;2523;51.058;6.922;2022-12-10T17:11:30;1.50;99.90
5009;DHT22;2523;51.058;6.922;2022-12-10T17:14:25;1.60;99.90
5009;DHT22;2523;51.058;6.922;2022-12-10T17:16:53;1.50;99.90
5009;DHT22;2523;51.058;6.922;2022-12-10T17:19:19;1.50;99.90
5009;DHT22;2523;51.058;6.922;2022-12-10T17:21:45;1.60;99.90
5009;DHT22;2523;51.058;6.922;2022-12-10T17:24:11;1.50;99.90
5009;DHT22;2523;51.058;6.922;2022-12-10T17:26:39;1.40;99.90
5009;DHT22;2523;51.058;6.922;2022-12-10T17:31:42;1.40;99.90
5009;DHT22;2523;51.058;6.922;2022-12-10T17:34:09;1.40;99.90
5009;DHT22;2523;51.058;6.922;2022-12-10T17:36:36;1.40;99.90
5009;DHT22;2523;51.058;6.922;2022-12-10T17:39:02;1.40;99.90
5009;DHT22;2523;51.058;6.922;2022-12-10T17:41:27;1.40;99.90
5009;DHT22;2523;51.058;6.922;2022-12-10T17:43:53;1.40;99.90
5009;DHT22;2523;51.058;6.922;2022-12-10T17:46:22;1.40;99.90
5009;DHT22;2523;51.058;6.922;2022-12-10T17:48:48;1.40;99.90
5009;DHT22;2523;51.058;6.922;2022-12-10T17:51:14;1.40;99.90
5009;DHT22;2523;51.058;6.922;2022-12-10T17:53:41;1.40;99.90
5009;DHT22;2523;51.058;6.922;2022-12-10T17:56:19;1.40;99.90
5009;DHT22;2523;51.058;6.922;2022-12-10T17:58:46;1.30;99.90
5009;DHT22;2523;51.058;6.922;2022-12-10T18:01:13;1.40;99.90
5009;DHT22;2523;51.058;6.922;2022-12-10T18:03:39;1.40;99.90
5009;DHT22;2523;51.058;6.922;2022-12-10T18:06:22;1.30;99.90